createdAt,value
2018-08-16T00:00:26.101Z,0.00
2018-08-16T00:01:26.099Z,0.00
2018-08-16T00:02:26.143Z,0.00
2018-08-16T00:03:26.117Z,0.00
2018-08-16T00:04:26.125Z,0.00
2018-08-16T00:05:26.116Z,0.00
2018-08-16T00:06:26.102Z,0.00
2018-08-16T00:07:26.080Z,0.00
2018-08-16T00:08:26.112Z,0.00
2018-08-16T00:09:26.127Z,0.00
2018-08-16T00:10:26.072Z,0.00
2018-08-16T00:11:26.079Z,0.00
2018-08-16T00:12:26.067Z,0.00
2018-08-16T00:13:26.063Z,0.00
2018-08-16T00:14:26.090Z,0.00
2018-08-16T00:15:26.069Z,0.00
2018-08-16T00:16:26.055Z,0.00
2018-08-16T00:17:26.050Z,0.00
2018-08-16T00:18:26.080Z,0.00
2018-08-16T00:19:26.049Z,0.00
2018-08-16T00:20:26.057Z,0.00
2018-08-16T00:21:26.047Z,0.00
2018-08-16T00:22:26.050Z,0.00
2018-08-16T00:23:26.041Z,0.00
2018-08-16T00:24:26.034Z,0.00
2018-08-16T00:25:26.036Z,0.00
2018-08-16T00:26:26.035Z,0.00
2018-08-16T00:27:26.023Z,0.00
2018-08-16T00:28:26.023Z,0.00
2018-08-16T00:29:26.075Z,0.00
2018-08-16T00:30:26.046Z,0.00
2018-08-16T00:31:26.024Z,0.00
2018-08-16T00:32:26.014Z,0.00
2018-08-16T00:33:26.008Z,0.00
2018-08-16T00:34:26.003Z,0.00
2018-08-16T00:35:26.000Z,0.00
2018-08-16T00:36:26.020Z,0.00
2018-08-16T00:37:25.992Z,0.00
2018-08-16T00:38:26.013Z,0.00
2018-08-16T00:39:25.990Z,0.00
2018-08-16T00:40:25.988Z,0.00
2018-08-16T00:41:25.985Z,0.00
2018-08-16T00:42:25.979Z,0.00
2018-08-16T00:43:25.996Z,0.00
2018-08-16T00:44:25.972Z,0.00
2018-08-16T00:45:25.989Z,0.00
2018-08-16T00:46:25.971Z,0.00
2018-08-16T00:47:25.975Z,0.00
2018-08-16T00:48:25.988Z,0.00
2018-08-16T00:49:25.971Z,0.00
2018-08-16T00:50:25.960Z,0.00
2018-08-16T00:51:25.961Z,0.00
2018-08-16T00:52:25.957Z,0.00
2018-08-16T00:53:25.978Z,0.00
2018-08-16T00:54:25.949Z,0.00
2018-08-16T00:55:25.949Z,0.00
2018-08-16T00:56:25.944Z,0.00
2018-08-16T00:57:25.965Z,0.00
2018-08-16T00:58:25.970Z,0.00
2018-08-16T00:59:25.954Z,0.00
2018-08-16T01:00:25.933Z,0.00
2018-08-16T01:01:25.930Z,0.00
2018-08-16T01:02:25.922Z,0.00
2018-08-16T01:03:25.944Z,0.00
2018-08-16T01:04:25.924Z,0.00
2018-08-16T01:05:25.915Z,0.00
2018-08-16T01:06:25.931Z,0.00
2018-08-16T01:07:25.931Z,0.00
2018-08-16T01:08:25.909Z,0.00
2018-08-16T01:09:25.935Z,0.00
2018-08-16T01:10:46.986Z,0.00
2018-08-16T01:11:25.905Z,0.00
2018-08-16T01:12:25.939Z,0.00
2018-08-16T01:13:25.897Z,0.00
2018-08-16T01:14:25.894Z,0.00
2018-08-16T01:15:25.890Z,0.00
2018-08-16T01:16:25.925Z,0.00
2018-08-16T01:17:25.881Z,0.00
2018-08-16T01:18:25.876Z,0.00
2018-08-16T01:19:25.880Z,0.00
2018-08-16T01:20:25.865Z,0.00
2018-08-16T01:21:25.863Z,0.00
2018-08-16T01:22:25.863Z,0.00
2018-08-16T01:23:25.859Z,0.00
2018-08-16T01:24:25.856Z,0.00
2018-08-16T01:25:25.860Z,0.00
2018-08-16T01:26:25.847Z,0.00
2018-08-16T01:27:25.872Z,0.00
2018-08-16T01:28:25.858Z,0.00
2018-08-16T01:29:25.848Z,0.00
2018-08-16T01:30:25.854Z,0.00
2018-08-16T01:31:25.832Z,0.00
2018-08-16T01:32:25.837Z,0.00
2018-08-16T01:33:25.824Z,0.00
2018-08-16T01:34:25.829Z,0.00
2018-08-16T01:35:25.830Z,0.00
2018-08-16T01:36:25.818Z,0.00
2018-08-16T01:37:25.825Z,0.00
2018-08-16T01:38:25.826Z,0.00
2018-08-16T01:39:25.826Z,0.00
2018-08-16T01:40:25.814Z,0.00
2018-08-16T01:41:25.835Z,0.00
2018-08-16T01:42:25.799Z,0.00
2018-08-16T01:43:25.794Z,0.00
2018-08-16T01:44:25.791Z,0.00
2018-08-16T01:45:25.818Z,0.00
2018-08-16T01:46:25.785Z,0.00
2018-08-16T01:47:25.787Z,0.00
2018-08-16T01:48:25.794Z,0.00
2018-08-16T01:49:25.787Z,0.00
2018-08-16T01:50:25.806Z,0.00
2018-08-16T01:51:25.794Z,0.00
2018-08-16T01:52:25.817Z,0.00
2018-08-16T01:53:25.779Z,0.00
2018-08-16T01:54:25.762Z,0.00
2018-08-16T01:55:25.766Z,0.00
2018-08-16T01:56:25.751Z,0.00
2018-08-16T01:57:25.763Z,0.00
2018-08-16T01:58:25.749Z,0.00
2018-08-16T01:59:25.754Z,0.00
2018-08-16T02:00:25.769Z,0.00
2018-08-16T02:01:25.755Z,0.00
2018-08-16T02:02:25.760Z,0.00
2018-08-16T02:03:25.728Z,0.00
2018-08-16T02:04:25.749Z,0.00
2018-08-16T02:05:25.739Z,0.00
2018-08-16T02:06:25.726Z,0.00
2018-08-16T02:07:25.718Z,0.00
2018-08-16T02:08:25.724Z,0.00
2018-08-16T02:09:25.714Z,0.00
2018-08-16T02:10:25.725Z,0.00
2018-08-16T02:11:25.724Z,0.00
2018-08-16T02:12:25.758Z,0.00
2018-08-16T02:13:25.702Z,0.00
2018-08-16T02:14:25.693Z,0.00
2018-08-16T02:15:25.693Z,0.00
2018-08-16T02:16:25.695Z,0.00
2018-08-16T02:17:25.686Z,0.00
2018-08-16T02:18:25.689Z,0.00
2018-08-16T02:19:25.698Z,0.00
2018-08-16T02:20:25.706Z,0.00
2018-08-16T02:21:25.732Z,0.00
2018-08-16T02:22:25.689Z,0.00
2018-08-16T02:23:25.680Z,0.00
2018-08-16T02:24:25.660Z,0.00
2018-08-16T02:25:25.657Z,0.00
2018-08-16T02:26:25.661Z,0.00
2018-08-16T02:27:25.657Z,0.00
2018-08-16T02:29:47.273Z,0.00
2018-08-16T02:30:47.182Z,0.00
2018-08-16T02:31:47.195Z,0.00
2018-08-16T02:32:47.185Z,0.00
2018-08-16T02:33:47.275Z,0.00
2018-08-16T02:34:47.172Z,0.00
2018-08-16T02:35:47.162Z,0.00
2018-08-16T02:36:47.215Z,0.00
2018-08-16T02:37:47.145Z,0.00
2018-08-16T02:38:47.138Z,0.00
2018-08-16T02:39:47.134Z,0.00
2018-08-16T02:40:47.154Z,0.00
2018-08-16T02:41:47.144Z,0.00
2018-08-16T02:42:47.136Z,0.00
2018-08-16T02:43:47.139Z,0.00
2018-08-16T02:44:47.133Z,0.00
2018-08-16T02:45:47.115Z,0.00
2018-08-16T02:46:47.117Z,0.00
2018-08-16T02:47:47.152Z,0.00
2018-08-16T02:48:47.108Z,0.00
2018-08-16T02:49:47.100Z,0.00
2018-08-16T02:50:47.154Z,0.00
2018-08-16T02:51:47.094Z,0.00
2018-08-16T02:52:47.104Z,0.00
2018-08-16T02:53:47.090Z,0.00
2018-08-16T02:54:47.091Z,0.00
2018-08-16T02:55:47.086Z,0.00
2018-08-16T02:56:47.134Z,0.00
2018-08-16T02:57:47.068Z,0.00
2018-08-16T02:58:47.074Z,0.00
2018-08-16T02:59:47.062Z,0.00
2018-08-16T03:00:47.064Z,0.00
2018-08-16T03:01:47.119Z,0.00
2018-08-16T03:02:47.079Z,0.00
2018-08-16T03:03:47.055Z,0.00
2018-08-16T03:04:47.049Z,0.00
2018-08-16T03:05:47.052Z,0.00
2018-08-16T03:06:47.063Z,0.00
2018-08-16T03:07:47.037Z,0.00
2018-08-16T03:08:47.057Z,0.00
2018-08-16T03:09:47.030Z,0.00
2018-08-16T03:10:47.038Z,0.00
2018-08-16T03:11:47.033Z,0.00
2018-08-16T03:12:47.073Z,0.00
2018-08-16T03:13:47.014Z,0.00
2018-08-16T03:14:47.008Z,0.00
2018-08-16T03:15:47.003Z,0.00
2018-08-16T03:16:47.004Z,0.00
2018-08-16T03:17:47.002Z,0.00
2018-08-16T03:18:46.994Z,0.00
2018-08-16T03:19:46.990Z,0.00
2018-08-16T03:20:47.024Z,0.00
2018-08-16T03:21:47.003Z,0.00
2018-08-16T03:22:47.063Z,0.00
2018-08-16T03:23:46.977Z,0.00
2018-08-16T03:24:46.967Z,0.00
2018-08-16T03:25:46.970Z,0.00
2018-08-16T03:26:46.984Z,0.00
2018-08-16T03:27:46.983Z,0.00
2018-08-16T03:28:46.964Z,0.00
2018-08-16T03:29:46.962Z,0.00
2018-08-16T03:30:46.969Z,0.00
2018-08-16T03:31:47.007Z,0.00
2018-08-16T03:32:46.984Z,0.00
2018-08-16T03:33:46.960Z,0.00
2018-08-16T03:34:46.941Z,0.00
2018-08-16T03:35:46.933Z,0.00
2018-08-16T03:36:46.935Z,0.00
2018-08-16T03:37:46.927Z,0.00
2018-08-16T03:38:46.930Z,0.00
2018-08-16T03:39:46.959Z,0.00
2018-08-16T03:40:46.941Z,0.00
2018-08-16T03:41:46.917Z,0.00
2018-08-16T03:42:46.901Z,4.00
2018-08-16T03:43:46.892Z,4.00
2018-08-16T03:44:46.904Z,4.00
2018-08-16T03:45:46.916Z,4.00
2018-08-16T03:46:46.890Z,4.00
2018-08-16T03:47:46.897Z,4.00
2018-08-16T03:48:46.878Z,8.00
2018-08-16T03:49:46.897Z,4.00
2018-08-16T03:50:46.868Z,8.00
2018-08-16T03:51:46.871Z,8.00
2018-08-16T03:52:46.862Z,12.00
2018-08-16T03:53:46.894Z,12.00
2018-08-16T03:54:46.851Z,12.00
2018-08-16T03:55:46.857Z,16.00
2018-08-16T03:56:46.862Z,16.00
2018-08-16T03:57:46.865Z,20.00
2018-08-16T03:58:46.839Z,24.00
2018-08-16T03:59:46.848Z,32.00
2018-08-16T04:00:46.859Z,32.00
2018-08-16T04:01:46.846Z,36.00
2018-08-16T04:02:46.818Z,40.00
2018-08-16T04:03:46.837Z,48.00
2018-08-16T04:04:46.837Z,52.00
2018-08-16T04:05:46.835Z,60.00
2018-08-16T04:06:46.847Z,68.00
2018-08-16T04:07:46.802Z,76.00
2018-08-16T04:08:46.802Z,84.00
2018-08-16T04:09:46.832Z,96.00
2018-08-16T04:10:46.796Z,104.00
2018-08-16T04:11:46.784Z,116.00
2018-08-16T04:12:46.796Z,128.00
2018-08-16T04:13:46.781Z,140.00
2018-08-16T04:14:46.776Z,156.00
2018-08-16T04:15:46.777Z,172.00
2018-08-16T04:16:46.793Z,184.00
2018-08-16T04:17:46.762Z,200.00
2018-08-16T04:18:46.761Z,216.00
2018-08-16T04:19:46.768Z,236.00
2018-08-16T04:20:46.783Z,256.00
2018-08-16T04:21:46.746Z,276.00
2018-08-16T04:22:46.743Z,296.00
2018-08-16T04:23:46.747Z,316.00
2018-08-16T04:24:46.736Z,340.00
2018-08-16T04:25:46.729Z,360.00
2018-08-16T04:26:46.726Z,392.00
2018-08-16T04:27:46.740Z,412.00
2018-08-16T04:28:46.732Z,440.00
2018-08-16T04:29:46.738Z,468.00
2018-08-16T04:30:46.709Z,496.00
2018-08-16T04:31:46.711Z,524.00
2018-08-16T04:32:46.700Z,556.00
2018-08-16T04:33:46.700Z,584.00
2018-08-16T04:34:46.698Z,616.00
2018-08-16T04:35:46.693Z,652.00
2018-08-16T04:36:46.713Z,688.00
2018-08-16T04:37:46.703Z,728.00
2018-08-16T04:38:46.733Z,768.00
2018-08-16T04:39:46.710Z,808.00
2018-08-16T04:40:46.694Z,848.00
2018-08-16T04:41:46.808Z,888.00
2018-08-16T04:42:46.661Z,936.00
2018-08-16T04:43:46.674Z,984.00
2018-08-16T04:44:46.649Z,1028.00
2018-08-16T04:45:46.663Z,1068.00
2018-08-16T04:46:46.669Z,1112.00
2018-08-16T04:47:46.641Z,1160.00
2018-08-16T04:48:46.661Z,1208.00
2018-08-16T04:49:46.625Z,1252.00
2018-08-16T04:50:46.624Z,1288.00
2018-08-16T04:51:46.621Z,1332.00
2018-08-16T04:52:46.642Z,1372.00
2018-08-16T04:53:46.613Z,1416.00
2018-08-16T04:54:48.570Z,1516.00
2018-08-16T04:55:46.614Z,1668.00
2018-08-16T04:56:46.630Z,1772.00
2018-08-16T04:57:46.657Z,1848.00
2018-08-16T04:58:46.628Z,1932.00
2018-08-16T04:59:46.583Z,2000.00
2018-08-16T05:00:46.579Z,2068.00
2018-08-16T05:01:46.579Z,2124.00
2018-08-16T05:02:46.576Z,2200.00
2018-08-16T05:03:46.575Z,2268.00
2018-08-16T05:04:46.575Z,2372.00
2018-08-16T05:05:46.596Z,2464.00
2018-08-16T05:06:46.568Z,2544.00
2018-08-16T05:07:46.551Z,2652.00
2018-08-16T05:08:46.550Z,2732.00
2018-08-16T05:09:46.555Z,2832.00
2018-08-16T05:10:46.595Z,2956.00
2018-08-16T05:11:47.065Z,3112.00
2018-08-16T05:12:46.544Z,3232.00
2018-08-16T05:13:46.552Z,3364.00
2018-08-16T05:14:46.572Z,3492.00
2018-08-16T05:15:46.534Z,3560.00
2018-08-16T05:16:46.588Z,3592.00
2018-08-16T05:17:48.083Z,3696.00
2018-08-16T05:18:46.597Z,3808.00
2018-08-16T05:19:46.522Z,3940.00
2018-08-16T05:20:46.507Z,4032.00
2018-08-16T05:21:46.499Z,4020.00
2018-08-16T05:22:46.511Z,4056.00
2018-08-16T05:23:46.507Z,4108.00
2018-08-16T05:24:47.069Z,4132.00
2018-08-16T05:25:46.516Z,4076.00
2018-08-16T05:26:46.496Z,4196.00
2018-08-16T05:27:46.529Z,4244.00
2018-08-16T05:28:46.485Z,4244.00
2018-08-16T05:29:46.524Z,4332.00
2018-08-16T05:30:46.505Z,4336.00
2018-08-16T05:31:46.590Z,4328.00
2018-08-16T05:32:46.480Z,4384.00
2018-08-16T05:33:46.461Z,4568.00
2018-08-16T05:34:46.460Z,4460.00
2018-08-16T05:35:46.485Z,4572.00
2018-08-16T05:36:46.462Z,4752.00
2018-08-16T05:37:46.505Z,4020.00
2018-08-16T05:38:46.455Z,4772.00
2018-08-16T05:39:46.454Z,5312.00
2018-08-16T05:40:46.456Z,5404.00
2018-08-16T05:41:46.468Z,5716.00
2018-08-16T05:42:46.477Z,6160.00
2018-08-16T05:43:46.439Z,6336.00
2018-08-16T05:44:46.435Z,6600.00
2018-08-16T05:45:46.447Z,6804.00
2018-08-16T05:46:46.436Z,7040.00
2018-08-16T05:47:46.429Z,7040.00
2018-08-16T05:48:46.446Z,7032.00
2018-08-16T05:49:46.442Z,7084.00
2018-08-16T05:50:46.437Z,6556.00
2018-08-16T05:51:46.420Z,5800.00
2018-08-16T05:52:46.414Z,5328.00
2018-08-16T05:53:46.411Z,4764.00
2018-08-16T05:54:46.409Z,4412.00
2018-08-16T05:55:46.411Z,4264.00
2018-08-16T05:56:46.406Z,4332.00
2018-08-16T05:57:46.410Z,4436.00
2018-08-16T05:58:46.408Z,4524.00
2018-08-16T05:59:46.411Z,4484.00
2018-08-16T06:00:46.427Z,4596.00
2018-08-16T06:01:46.411Z,4844.00
2018-08-16T06:02:46.414Z,5412.00
2018-08-16T06:03:46.438Z,6560.00
2018-08-16T06:04:46.398Z,8012.00
2018-08-16T06:05:46.393Z,8664.00
2018-08-16T06:06:46.400Z,9584.00
2018-08-16T06:07:46.399Z,9992.00
2018-08-16T06:08:46.391Z,10056.00
2018-08-16T06:09:46.400Z,10396.00
2018-08-16T06:10:46.382Z,10572.00
2018-08-16T06:11:46.382Z,10700.00
2018-08-16T06:12:46.381Z,10924.00
2018-08-16T06:13:46.380Z,10916.00
2018-08-16T06:14:46.376Z,11036.00
2018-08-16T06:15:46.378Z,11236.00
2018-08-16T06:16:46.369Z,11408.00
2018-08-16T06:17:46.369Z,11096.00
2018-08-16T06:18:46.370Z,9472.00
2018-08-16T06:19:46.365Z,7476.00
2018-08-16T06:20:46.365Z,6512.00
2018-08-16T06:21:46.365Z,6408.00
2018-08-16T06:22:46.363Z,6580.00
2018-08-16T06:23:46.364Z,7368.00
2018-08-16T06:24:46.361Z,7980.00
2018-08-16T06:25:46.360Z,8512.00
2018-08-16T06:26:46.356Z,7496.00
2018-08-16T06:27:46.365Z,7280.00
2018-08-16T06:28:46.354Z,7704.00
2018-08-16T06:29:46.354Z,8664.00
2018-08-16T06:30:46.350Z,10144.00
2018-08-16T06:31:46.416Z,11108.00
2018-08-16T06:32:46.354Z,12496.00
2018-08-16T06:33:46.347Z,12272.00
2018-08-16T06:34:46.348Z,12100.00
2018-08-16T06:35:46.347Z,14124.00
2018-08-16T06:36:46.344Z,13652.00
2018-08-16T06:37:46.346Z,13740.00
2018-08-16T06:38:46.350Z,13012.00
2018-08-16T06:39:46.343Z,11724.00
2018-08-16T06:40:46.342Z,10888.00
2018-08-16T06:41:46.341Z,10772.00
2018-08-16T06:42:46.344Z,10988.00
2018-08-16T06:43:46.337Z,11040.00
2018-08-16T06:44:46.331Z,10568.00
2018-08-16T06:45:46.423Z,10112.00
2018-08-16T06:46:46.390Z,10028.00
2018-08-16T06:47:46.404Z,10344.00
2018-08-16T06:48:46.337Z,11056.00
2018-08-16T06:49:46.352Z,11820.00
2018-08-16T06:50:46.503Z,12264.00
2018-08-16T06:51:46.765Z,12452.00
2018-08-16T06:52:46.330Z,12968.00
2018-08-16T06:53:46.330Z,13996.00
2018-08-16T06:54:46.324Z,15200.00
2018-08-16T06:55:46.325Z,14300.00
2018-08-16T06:56:46.319Z,12936.00
2018-08-16T06:57:51.128Z,12912.00
2018-08-16T06:58:46.339Z,13068.00
2018-08-16T06:59:46.320Z,13788.00
2018-08-16T07:00:46.320Z,12604.00
2018-08-16T07:01:46.329Z,10544.00
2018-08-16T07:02:46.325Z,9516.00
2018-08-16T07:03:46.355Z,9108.00
2018-08-16T07:05:07.338Z,8816.00
2018-08-16T07:06:09.133Z,8752.00
2018-08-16T07:06:47.157Z,8580.00
2018-08-16T07:07:47.140Z,8504.00
2018-08-16T07:08:48.127Z,8532.00
2018-08-16T07:09:47.133Z,8632.00
2018-08-16T07:10:46.317Z,8860.00
2018-08-16T07:11:46.312Z,8908.00
2018-08-16T07:12:46.308Z,9568.00
2018-08-16T07:13:46.307Z,10408.00
2018-08-16T07:14:46.329Z,20096.00
2018-08-16T07:15:46.315Z,19424.00
2018-08-16T07:16:46.313Z,17696.00
2018-08-16T07:17:46.317Z,16960.00
2018-08-16T07:18:47.227Z,18912.00
2018-08-16T07:19:46.316Z,11664.00
2018-08-16T07:20:46.307Z,13228.00
2018-08-16T07:21:47.146Z,11188.00
2018-08-16T07:22:47.147Z,10040.00
2018-08-16T07:23:46.301Z,10560.00
2018-08-16T07:24:47.166Z,11680.00
2018-08-16T07:25:46.309Z,15224.00
2018-08-16T07:26:46.308Z,22176.00
2018-08-16T07:27:46.318Z,24064.00
2018-08-16T07:28:46.321Z,26464.00
2018-08-16T07:29:46.333Z,23424.00
2018-08-16T07:30:46.311Z,19296.00
2018-08-16T07:31:46.296Z,21920.00
2018-08-16T07:32:46.293Z,28832.00
2018-08-16T07:33:46.292Z,29984.00
2018-08-16T07:34:46.302Z,28896.00
2018-08-16T07:35:46.311Z,28896.00
2018-08-16T07:36:46.305Z,27712.00
2018-08-16T07:37:46.319Z,22304.00
2018-08-16T07:38:46.313Z,30496.00
2018-08-16T07:39:46.528Z,31744.00
2018-08-16T07:40:46.636Z,31840.00
2018-08-16T07:41:46.383Z,31584.00
2018-08-16T07:42:46.333Z,31168.00
2018-08-16T07:43:46.325Z,29024.00
2018-08-16T07:44:46.314Z,22720.00
2018-08-16T07:45:46.446Z,18656.00
2018-08-16T07:46:46.318Z,18976.00
2018-08-16T07:47:46.308Z,18976.00
2018-08-16T07:48:46.309Z,19360.00
2018-08-16T07:49:47.224Z,19232.00
2018-08-16T07:50:46.321Z,19168.00
2018-08-16T07:51:46.458Z,18528.00
2018-08-16T07:52:46.319Z,19520.00
2018-08-16T07:53:46.323Z,26688.00
2018-08-16T07:54:46.333Z,35776.00
2018-08-16T07:55:46.332Z,37536.00
2018-08-16T07:56:47.166Z,36992.00
2018-08-16T07:57:46.339Z,38240.00
2018-08-16T07:58:46.337Z,37088.00
2018-08-16T07:59:46.342Z,39168.00
2018-08-16T08:00:46.387Z,38560.00
2018-08-16T08:01:47.181Z,29536.00
2018-08-16T08:02:46.380Z,26656.00
2018-08-16T08:03:46.353Z,42208.00
2018-08-16T08:04:46.360Z,28704.00
2018-08-16T08:05:46.396Z,39328.00
2018-08-16T08:06:46.375Z,39488.00
2018-08-16T08:07:46.519Z,40064.00
2018-08-16T08:08:46.444Z,41600.00
2018-08-16T08:09:46.472Z,44384.00
2018-08-16T08:10:46.385Z,46336.00
2018-08-16T08:11:46.396Z,45600.00
2018-08-16T08:12:47.400Z,43168.00
2018-08-16T08:13:46.407Z,42816.00
2018-08-16T08:14:46.437Z,42496.00
2018-08-16T08:15:46.407Z,45408.00
2018-08-16T08:16:46.424Z,47456.00
2018-08-16T08:17:46.410Z,46432.00
2018-08-16T08:18:46.432Z,46560.00
2018-08-16T08:19:46.442Z,48960.00
2018-08-16T08:20:46.431Z,48352.00
2018-08-16T08:21:47.192Z,47008.00
2018-08-16T08:22:46.434Z,48192.00
2018-08-16T08:23:46.455Z,47936.00
2018-08-16T08:24:46.453Z,49472.00
2018-08-16T08:25:46.456Z,49120.00
2018-08-16T08:26:46.465Z,49312.00
2018-08-16T08:27:46.465Z,49696.00
2018-08-16T08:28:46.477Z,52768.00
2018-08-16T08:29:46.472Z,53664.00
2018-08-16T08:30:46.484Z,52544.00
2018-08-16T08:31:46.597Z,50560.00
2018-08-16T08:32:46.491Z,53504.00
2018-08-16T08:33:46.496Z,53696.00
2018-08-16T08:34:46.510Z,53856.00
2018-08-16T08:35:46.506Z,55616.00
2018-08-16T08:36:46.517Z,55712.00
2018-08-16T08:37:46.520Z,51104.00
2018-08-16T08:38:46.527Z,54432.00
2018-08-16T08:39:47.201Z,56192.00
2018-08-16T08:40:46.542Z,58688.00
2018-08-16T08:41:46.542Z,57504.00
2018-08-16T08:42:46.550Z,44032.00
2018-08-16T08:43:57.208Z,52064.00
2018-08-16T08:44:46.560Z,54016.00
2018-08-16T08:45:46.566Z,56032.00
2018-08-16T08:46:46.569Z,60512.00
2018-08-16T08:47:46.579Z,58624.00
2018-08-16T08:48:46.584Z,56992.00
2018-08-16T08:49:46.590Z,39712.00
2018-08-16T08:50:46.596Z,50976.00
2018-08-16T08:51:46.603Z,28352.00
2018-08-16T08:52:46.643Z,48224.00
2018-08-16T08:53:46.663Z,52384.00
2018-08-16T08:54:46.628Z,59456.00
2018-08-16T08:55:47.216Z,61376.00
2018-08-16T08:56:47.223Z,55392.00
2018-08-16T08:59:20.894Z,60896.00
2018-08-16T09:00:20.110Z,55808.00
2018-08-16T09:02:15.819Z,34400.00
2018-08-16T09:03:15.258Z,46496.00
2018-08-16T09:05:09.315Z,24736.00
2018-08-16T09:06:08.962Z,33984.00
2018-08-16T09:08:02.979Z,22976.00
2018-08-16T09:09:02.560Z,28864.00
2018-08-16T09:10:02.587Z,20544.00
2018-08-16T09:11:02.532Z,46784.00
2018-08-16T09:12:03.245Z,64544.00
2018-08-16T09:13:02.509Z,52320.00
2018-08-16T09:14:02.509Z,40352.00
2018-08-16T09:15:04.309Z,49024.00
2018-08-16T09:16:02.530Z,54944.00
2018-08-16T09:17:02.550Z,52416.00
2018-08-16T09:18:02.620Z,52128.00
2018-08-16T09:19:02.576Z,31072.00
2018-08-16T09:20:02.564Z,33440.00
2018-08-16T09:21:02.582Z,25152.00
2018-08-16T09:22:02.558Z,34720.00
2018-08-16T09:23:02.569Z,36256.00
2018-08-16T09:24:02.594Z,46848.00
2018-08-16T09:25:02.576Z,49376.00
2018-08-16T09:26:02.604Z,60128.00
2018-08-16T09:27:03.364Z,60544.00
2018-08-16T09:28:02.594Z,69792.00
2018-08-16T09:29:03.332Z,68768.00
2018-08-16T09:30:02.597Z,68416.00
2018-08-16T09:31:02.610Z,63200.00
2018-08-16T09:32:02.616Z,61536.00
2018-08-16T09:33:02.617Z,67040.00
2018-08-16T09:34:02.621Z,66336.00
2018-08-16T09:35:03.390Z,69856.00
2018-08-16T09:36:02.634Z,72224.00
2018-08-16T09:37:02.643Z,67968.00
2018-08-16T09:38:02.659Z,62080.00
2018-08-16T09:39:02.691Z,64352.00
2018-08-16T09:40:02.706Z,24640.00
2018-08-16T09:41:02.679Z,33888.00
2018-08-16T09:42:02.675Z,76224.00
2018-08-16T09:43:02.695Z,72544.00
2018-08-16T09:44:02.688Z,73472.00
2018-08-16T09:45:02.697Z,73472.00
2018-08-16T09:46:02.699Z,60352.00
2018-08-16T09:47:02.717Z,34720.00
2018-08-16T09:48:02.722Z,35040.00
2018-08-16T09:49:02.717Z,77696.00
2018-08-16T09:50:02.729Z,69440.00
2018-08-16T09:51:02.728Z,27328.00
2018-08-16T09:52:02.755Z,23072.00
2018-08-16T09:53:02.733Z,74976.00
2018-08-16T09:54:02.775Z,74336.00
2018-08-16T09:55:02.752Z,74080.00
2018-08-16T09:56:02.771Z,70528.00
2018-08-16T09:57:02.767Z,72544.00
2018-08-16T09:58:03.800Z,68544.00
2018-08-16T09:59:02.788Z,71200.00
2018-08-16T10:00:02.822Z,70528.00
2018-08-16T10:01:02.795Z,67648.00
2018-08-16T10:02:02.831Z,67744.00
2018-08-16T10:03:02.828Z,59680.00
2018-08-16T10:04:02.838Z,67520.00
2018-08-16T10:05:02.835Z,76576.00
2018-08-16T10:06:02.828Z,76096.00
2018-08-16T10:07:02.855Z,73664.00
2018-08-16T10:08:02.838Z,73152.00
2018-08-16T10:09:02.869Z,80448.00
2018-08-16T10:10:02.863Z,77376.00
2018-08-16T10:11:02.882Z,72736.00
2018-08-16T10:12:02.888Z,28576.00
2018-08-16T10:13:02.897Z,79168.00
2018-08-16T10:14:02.874Z,81952.00
2018-08-16T10:15:02.899Z,74720.00
2018-08-16T10:16:02.893Z,77024.00
2018-08-16T10:17:02.905Z,66432.00
2018-08-16T10:18:02.919Z,69888.00
2018-08-16T10:19:02.938Z,74688.00
2018-08-16T10:20:02.948Z,78496.00
2018-08-16T10:21:02.950Z,78432.00
2018-08-16T10:22:02.967Z,76224.00
2018-08-16T10:23:02.992Z,71616.00
2018-08-16T10:24:02.978Z,72640.00
2018-08-16T10:25:02.992Z,76256.00
2018-08-16T10:26:03.868Z,82816.00
2018-08-16T10:27:03.035Z,78336.00
2018-08-16T10:28:03.857Z,74848.00
2018-08-16T10:29:03.009Z,71808.00
2018-08-16T10:30:03.004Z,76320.00
2018-08-16T10:31:03.015Z,77312.00
2018-08-16T10:32:03.015Z,75232.00
2018-08-16T10:33:03.077Z,75072.00
2018-08-16T10:34:03.030Z,77056.00
2018-08-16T10:35:03.032Z,77120.00
2018-08-16T10:36:04.886Z,77120.00
2018-08-16T10:37:03.146Z,78176.00
2018-08-16T10:38:03.090Z,80448.00
2018-08-16T10:39:03.056Z,75840.00
2018-08-16T10:40:03.084Z,80512.00
2018-08-16T10:43:03.161Z,24352.00
2018-08-16T10:43:37.000Z,82112.00
2018-08-16T10:45:37.191Z,77024.00
2018-08-16T10:46:32.324Z,74592.00
2018-08-16T10:48:25.870Z,79136.00
2018-08-16T10:49:27.139Z,81280.00
2018-08-16T10:51:38.793Z,69888.00
2018-08-16T10:52:23.257Z,79616.00
2018-08-16T10:54:17.025Z,82272.00
2018-08-16T10:55:16.298Z,79328.00
2018-08-16T10:57:10.575Z,80800.00
2018-08-16T10:58:10.461Z,85600.00
2018-08-16T11:00:13.399Z,86560.00
2018-08-16T11:02:19.429Z,77664.00
2018-08-16T11:03:19.978Z,76256.00
2018-08-16T11:05:13.605Z,80704.00
2018-08-16T11:06:12.789Z,79456.00
2018-08-16T11:08:07.253Z,77280.00
2018-08-16T11:09:07.279Z,79840.00
2018-08-16T11:11:09.343Z,78976.00
2018-08-16T11:12:02.424Z,83072.00
2018-08-16T11:14:00.867Z,77408.00
2018-08-16T11:14:58.317Z,86336.00
2018-08-16T11:16:52.861Z,89056.00
2018-08-16T11:17:52.271Z,89472.00
2018-08-16T11:19:55.441Z,89536.00
2018-08-16T11:20:48.833Z,88832.00
2018-08-16T11:22:47.232Z,89792.00
2018-08-16T11:23:45.302Z,88288.00
2018-08-16T11:25:41.183Z,89376.00
2018-08-16T11:26:40.984Z,87968.00
2018-08-16T11:28:37.649Z,87296.00
2018-08-16T11:29:35.640Z,74272.00
2018-08-16T11:31:40.352Z,87232.00
2018-08-16T11:32:31.847Z,87296.00
2018-08-16T11:34:31.000Z,88416.00
2018-08-16T11:35:24.059Z,87680.00
2018-08-16T11:37:18.380Z,89792.00
2018-08-16T11:38:17.653Z,90944.00
2018-08-16T11:40:13.305Z,87520.00
2018-08-16T11:41:12.409Z,87616.00
2018-08-16T11:42:14.084Z,87520.00
2018-08-16T11:43:12.382Z,85120.00
2018-08-16T11:44:14.103Z,87488.00
2018-08-16T11:45:14.728Z,88640.00
2018-08-16T11:46:14.086Z,91264.00
2018-08-16T11:47:14.085Z,85792.00
2018-08-16T11:48:12.423Z,79040.00
2018-08-16T11:50:48.228Z,83936.00
2018-08-16T11:51:47.740Z,88384.00
2018-08-16T11:53:42.990Z,80736.00
2018-08-16T11:54:42.060Z,81568.00
2018-08-16T11:56:42.866Z,85664.00
2018-08-16T11:57:40.804Z,90528.00
2018-08-16T11:59:36.501Z,95616.00
2018-08-16T12:00:36.134Z,94336.00
2018-08-16T12:02:31.204Z,93216.00
2018-08-16T12:03:31.087Z,93600.00
2018-08-16T12:05:25.058Z,95872.00
2018-08-16T12:06:25.369Z,95424.00
2018-08-16T12:08:28.996Z,94112.00
2018-08-16T12:09:19.489Z,91424.00
2018-08-16T12:11:15.893Z,87072.00
2018-08-16T12:13:29.783Z,87872.00
2018-08-16T12:14:29.591Z,89504.00
2018-08-16T12:16:24.457Z,88064.00
2018-08-16T12:17:23.088Z,84640.00
2018-08-16T12:19:17.216Z,88960.00
2018-08-16T12:20:16.871Z,88960.00
2018-08-16T12:22:10.880Z,75296.00
2018-08-16T12:23:10.456Z,77824.00
2018-08-16T12:25:17.846Z,83072.00
2018-08-16T12:26:04.083Z,76544.00
2018-08-16T12:27:58.098Z,77824.00
2018-08-16T12:28:57.739Z,82848.00
2018-08-16T12:30:51.918Z,80224.00
2018-08-16T12:31:51.535Z,87744.00
2018-08-16T12:33:48.074Z,80576.00
2018-08-16T12:34:47.239Z,83872.00
2018-08-16T12:36:41.218Z,86208.00
2018-08-16T12:37:40.782Z,88320.00
2018-08-16T12:39:34.923Z,81344.00
2018-08-16T12:40:34.573Z,74080.00
2018-08-16T12:42:28.576Z,72768.00
2018-08-16T12:43:28.130Z,74304.00
2018-08-16T12:45:22.303Z,78624.00
2018-08-16T12:46:21.890Z,71200.00
2018-08-16T12:48:16.576Z,71584.00
2018-08-16T12:49:15.847Z,72000.00
2018-08-16T12:51:10.351Z,81248.00
2018-08-16T12:52:09.425Z,83040.00
2018-08-16T12:54:05.111Z,74848.00
2018-08-16T12:55:04.143Z,76224.00
2018-08-16T12:56:58.984Z,79936.00
2018-08-16T12:57:57.880Z,79872.00
2018-08-16T12:59:52.015Z,76512.00
2018-08-16T13:00:51.760Z,80896.00
2018-08-16T13:02:46.275Z,81984.00
2018-08-16T13:03:45.337Z,85568.00
2018-08-16T13:05:45.791Z,83232.00
2018-08-16T13:06:44.739Z,83008.00
2018-08-16T13:08:38.648Z,80128.00
2018-08-16T13:09:38.262Z,81408.00
2018-08-16T13:11:32.996Z,79968.00